Glennallen, Alaska
Current Conditions -  °F | °C
As of 12:53 AM on Saturday 22 Nov 2014 (Local Time) from PAGK Reporting Station
Overcast Overcast  
Wind Chill:   Ceiling: 4800
Heat Index:   Visibility: 9mi
Dew Point:   Wind: 0mph
Humidity: 80%   Direction: NA
Pressure: 29.15"   Gusts: NA
Location:  62.11°N, 145.55°W
Report Text: PAGK 220953Z AUTO 00000KT 9SM OVC048 M13/M16 A2915 RMK AO2 SNB37E52 SLP916 P0000 T11281156 TSNO $
Loading
Personal Weather Stations






























Interactive Weather Map New forecast layout! Learn more

10-Day Weather Forecast

Advertisements
Track Severe Weather on mobile